Time;durP1;ratioP1;P1;durP2;ratioP2;P2;SDS_P1;SDS_P2;PMS_P1;PMS_P2;Temp;Humidity;BMP_temperature;BMP_pressure;BME280_temperature;BME280_humidity;BME280_pressure;Samples;Min_cycle;Max_cycle;Signal;HPM_P1;HPM_P2
2022/05/07 00:00:58;;;;;;;29.85;20.08;;;11.00;99.90;;;;;;5028227;28;20523;-55
2022/05/07 00:03:24;;;;;;;33.30;22.15;;;10.80;99.90;;;;;;5029563;28;20076;-56
2022/05/07 00:05:50;;;;;;;29.30;21.13;;;10.90;99.90;;;;;;5029456;28;20051;-55
2022/05/07 00:08:16;;;;;;;30.88;21.35;;;11.20;99.90;;;;;;5029516;28;20057;-55
2022/05/07 00:10:43;;;;;;;26.55;20.80;;;10.70;99.90;;;;;;5029278;28;20083;-55
2022/05/07 00:13:09;;;;;;;28.30;21.08;;;11.10;99.90;;;;;;5028194;28;20120;-55
2022/05/07 00:15:34;;;;;;;28.60;20.85;;;10.90;99.90;;;;;;5029658;28;20485;-55
2022/05/07 00:18:07;;;;;;;35.55;21.92;;;11.90;99.90;;;;;;5029399;28;20049;-56
2022/05/07 00:20:34;;;;;;;27.50;20.67;;;11.40;99.90;;;;;;5028375;28;20081;-56
2022/05/07 00:23:01;;;;;;;27.88;21.02;;;11.30;99.90;;;;;;5028281;28;20471;-56
2022/05/07 00:25:28;;;;;;;29.20;23.08;;;11.30;99.90;;;;;;5025471;28;20092;-56
2022/05/07 00:27:54;;;;;;;28.35;21.48;;;11.40;99.90;;;;;;5029183;28;20492;-56
2022/05/07 00:30:20;;;;;;;27.13;21.92;;;12.10;99.90;;;;;;5029223;28;20038;-55
2022/05/07 00:32:46;;;;;;;32.92;22.20;;;11.80;99.90;;;;;;5027599;28;20057;-55
2022/05/07 00:35:12;;;;;;;32.92;21.40;;;11.10;99.90;;;;;;5028155;28;20045;-55
2022/05/07 00:37:38;;;;;;;30.23;21.10;;;11.80;99.90;;;;;;5027759;28;20381;-55
2022/05/07 00:40:05;;;;;;;27.63;20.77;;;11.50;99.90;;;;;;5027514;28;20096;-55
2022/05/07 00:42:30;;;;;;;27.85;19.08;;;11.40;99.90;;;;;;5027428;28;20061;-55
2022/05/07 00:44:56;;;;;;;30.25;21.65;;;11.40;99.90;;;;;;5027325;28;20054;-55
2022/05/07 00:47:30;;;;;;;27.50;21.02;;;11.40;99.90;;;;;;5028873;28;20045;-55
2022/05/07 00:52:43;;;;;;;28.33;21.98;;;11.50;99.90;;;;;;5027306;28;20059;-55
2022/05/07 00:55:11;;;;;;;24.90;19.25;;;11.30;99.90;;;;;;5029192;28;20049;-55
2022/05/07 00:57:37;;;;;;;27.17;20.80;;;11.40;99.90;;;;;;5027745;28;20053;-56
2022/05/07 01:00:04;;;;;;;30.40;20.83;;;11.40;99.90;;;;;;5027422;28;20053;-55
2022/05/07 01:02:30;;;;;;;28.98;20.55;;;11.40;99.90;;;;;;5027527;28;20033;-55
2022/05/07 01:04:56;;;;;;;30.35;20.02;;;11.50;99.90;;;;;;5028747;28;20041;-55
2022/05/07 01:07:22;;;;;;;33.88;22.70;;;11.50;99.90;;;;;;5028721;28;20124;-55
2022/05/07 01:09:48;;;;;;;27.95;20.42;;;11.50;99.90;;;;;;5028361;28;20144;-55
2022/05/07 01:12:14;;;;;;;24.77;19.88;;;11.40;99.90;;;;;;5028799;28;20042;-55
2022/05/07 01:14:40;;;;;;;26.83;19.63;;;11.60;99.90;;;;;;5027466;28;20057;-55
2022/05/07 01:17:07;;;;;;;28.23;21.73;;;11.60;99.90;;;;;;5027189;28;20410;-55
2022/05/07 01:19:32;;;;;;;27.25;20.50;;;11.90;99.90;;;;;;5028789;28;20033;-55
2022/05/07 01:21:58;;;;;;;24.77;19.90;;;11.60;99.90;;;;;;5028797;28;20491;-55
2022/05/07 01:24:24;;;;;;;25.55;19.90;;;11.60;99.90;;;;;;5026181;28;20088;-56
2022/05/07 01:26:50;;;;;;;28.20;20.08;;;11.60;99.90;;;;;;5027231;28;20107;-55
2022/05/07 01:29:15;;;;;;;28.50;19.17;;;11.70;99.90;;;;;;5029094;28;20595;-55
2022/05/07 01:31:41;;;;;;;22.90;19.27;;;12.80;99.90;;;;;;5027490;28;20381;-55
2022/05/07 01:34:07;;;;;;;24.17;19.95;;;11.70;99.90;;;;;;5027262;28;20053;-55
2022/05/07 01:36:32;;;;;;;28.05;21.55;;;12.20;99.90;;;;;;5030685;28;20107;-55
2022/05/07 01:38:58;;;;;;;28.67;20.42;;;11.70;99.90;;;;;;5031390;28;20133;-55
2022/05/07 01:41:24;;;;;;;29.45;21.77;;;11.70;99.90;;;;;;5031312;28;20055;-55
2022/05/07 01:43:49;;;;;;;29.73;22.90;;;11.80;99.90;;;;;;5031040;28;20057;-55
2022/05/07 01:49:00;;;;;;;28.15;21.00;;;11.80;99.90;;;;;;5030971;28;20068;-55
2022/05/07 01:51:25;;;;;;;27.35;20.38;;;11.80;99.90;;;;;;5031254;28;20114;-55
2022/05/07 01:53:51;;;;;;;26.40;21.25;;;11.90;99.90;;;;;;5030951;28;20045;-55
2022/05/07 01:56:17;;;;;;;23.73;20.30;;;12.40;99.90;;;;;;5047697;28;20558;-55
2022/05/07 01:58:42;;;;;;;25.20;19.63;;;11.80;99.90;;;;;;5032439;28;20120;-55
2022/05/07 02:01:10;;;;;;;28.73;20.63;;;11.90;99.90;;;;;;5030923;28;20099;-55
2022/05/07 02:03:37;;;;;;;24.15;19.20;;;11.90;99.90;;;;;;5032073;28;20436;-55
2022/05/07 02:06:02;;;;;;;26.25;19.55;;;11.90;99.90;;;;;;5032112;28;20049;-54
2022/05/07 02:08:28;;;;;;;25.50;20.73;;;11.90;99.90;;;;;;5032040;28;20068;-54
2022/05/07 02:10:54;;;;;;;23.63;18.73;;;11.90;99.90;;;;;;5030530;28;20081;-55
2022/05/07 02:13:19;;;;;;;25.98;19.45;;;12.00;99.90;;;;;;5031887;28;20791;-54
2022/05/07 02:15:45;;;;;;;26.17;18.92;;;11.90;99.90;;;;;;5030751;28;20057;-55
2022/05/07 02:18:11;;;;;;;26.08;19.90;;;11.90;99.90;;;;;;5030469;28;20465;-55
2022/05/07 02:20:36;;;;;;;28.40;19.80;;;12.10;99.90;;;;;;5030609;28;20037;-54
2022/05/07 02:23:02;;;;;;;27.75;20.13;;;12.50;99.90;;;;;;5031736;28;20045;-54
2022/05/07 02:25:28;;;;;;;29.63;22.02;;;11.90;99.90;;;;;;5029515;28;20053;-54
2022/05/07 02:27:53;;;;;;;28.17;21.60;;;11.90;99.90;;;;;;5030100;28;20049;-54
2022/05/07 02:30:19;;;;;;;28.35;22.88;;;12.70;99.90;;;;;;5031622;28;20045;-54
2022/05/07 02:32:48;;;;;;;30.02;23.50;;;11.90;99.90;;;;;;5030475;28;20056;-55
2022/05/07 02:35:14;;;;;;;27.75;21.42;;;11.90;99.90;;;;;;5030183;28;20499;-55
2022/05/07 02:37:40;;;;;;;25.70;20.15;;;11.90;99.90;;;;;;5031829;28;20042;-55
2022/05/07 02:40:07;;;;;;;25.02;21.35;;;11.90;99.90;;;;;;5029685;28;20042;-54
2022/05/07 02:42:33;;;;;;;28.17;20.35;;;11.90;99.90;;;;;;5029894;28;20060;-54
2022/05/07 02:45:03;;;;;;;26.23;20.13;;;11.90;99.90;;;;;;5031374;28;20045;-54
2022/05/07 02:47:29;;;;;;;25.23;20.25;;;11.90;99.90;;;;;;5029191;28;20053;-54
2022/05/07 02:49:55;;;;;;;23.23;19.45;;;11.90;99.90;;;;;;5029913;28;20497;-54
2022/05/07 02:52:21;;;;;;;28.90;19.48;;;11.90;99.90;;;;;;5031148;28;20040;-54
2022/05/07 02:54:47;;;;;;;23.70;19.33;;;11.90;99.90;;;;;;5031259;28;20038;-54
2022/05/07 02:57:12;;;;;;;29.20;20.42;;;11.90;99.90;;;;;;5031177;28;20044;-54
2022/05/07 02:59:38;;;;;;;23.60;20.42;;;11.80;99.90;;;;;;5013479;28;20057;-54
2022/05/07 03:02:05;;;;;;;26.90;20.35;;;11.50;99.90;;;;;;5031039;28;20079;-54
2022/05/07 03:04:30;;;;;;;27.77;21.63;;;11.80;99.90;;;;;;5031323;28;20060;-54
2022/05/07 03:06:56;;;;;;;22.88;19.60;;;11.80;99.90;;;;;;5029641;28;20041;-53
2022/05/07 03:09:22;;;;;;;30.42;22.48;;;11.80;99.90;;;;;;5029606;28;20450;-54
2022/05/07 03:11:47;;;;;;;24.77;21.08;;;11.80;99.90;;;;;;5030935;28;20046;-54
2022/05/07 03:14:13;;;;;;;27.20;21.27;;;11.60;99.90;;;;;;5029216;28;20053;-54
2022/05/07 03:16:39;;;;;;;26.77;22.17;;;11.60;99.90;;;;;;5030826;28;20046;-54
2022/05/07 03:19:06;;;;;;;28.88;22.83;;;11.70;99.90;;;;;;5029526;28;20072;-54
2022/05/07 03:21:31;;;;;;;27.88;23.05;;;12.10;99.90;;;;;;5029626;28;20052;-54
2022/05/07 03:23:57;;;;;;;28.05;21.98;;;11.70;99.90;;;;;;5029378;28;20400;-54
2022/05/07 03:26:23;;;;;;;25.50;21.58;;;11.70;99.90;;;;;;5027456;28;20099;-54
2022/05/07 03:28:49;;;;;;;27.85;21.92;;;11.70;99.90;;;;;;5030597;28;20045;-54
2022/05/07 03:31:15;;;;;;;30.15;23.25;;;11.70;99.90;;;;;;5030233;28;20128;-54
2022/05/07 03:33:41;;;;;;;30.15;23.58;;;11.70;99.90;;;;;;5029077;28;20099;-54
2022/05/07 03:36:07;;;;;;;31.65;23.20;;;11.80;99.90;;;;;;5030159;28;20041;-54
2022/05/07 03:38:32;;;;;;;27.25;23.00;;;11.70;99.90;;;;;;5045711;28;20038;-53
2022/05/07 03:40:58;;;;;;;26.35;21.40;;;11.80;99.90;;;;;;5028733;28;20059;-54
2022/05/07 03:43:24;;;;;;;28.67;24.02;;;12.30;99.90;;;;;;5028714;28;20582;-55
2022/05/07 03:45:50;;;;;;;31.83;24.67;;;11.80;99.90;;;;;;5028669;28;20065;-54
2022/05/07 03:48:16;;;;;;;29.67;24.17;;;11.70;99.90;;;;;;5029879;28;20579;-54
2022/05/07 03:50:42;;;;;;;28.58;23.35;;;11.70;99.90;;;;;;5028470;28;20124;-55
2022/05/07 03:55:52;;;;;;;26.30;22.63;;;12.30;99.90;;;;;;5029915;28;20519;-54
2022/05/07 03:58:18;;;;;;;28.10;22.33;;;11.70;99.90;;;;;;5029538;28;20045;-54
2022/05/07 04:00:44;;;;;;;28.50;22.42;;;11.80;99.90;;;;;;5028531;28;20451;-54
2022/05/07 04:03:11;;;;;;;30.25;23.73;;;11.60;99.90;;;;;;5030228;28;20072;-54
2022/05/07 04:05:37;;;;;;;29.13;23.98;;;11.70;99.90;;;;;;5030103;28;20049;-53
2022/05/07 04:08:03;;;;;;;29.65;23.80;;;12.40;99.90;;;;;;5029974;28;20115;-53
2022/05/07 04:10:29;;;;;;;31.17;23.52;;;11.70;99.90;;;;;;5030030;28;20037;-53
2022/05/07 04:12:55;;;;;;;25.05;21.00;;;11.60;99.90;;;;;;5030222;28;20052;-54
2022/05/07 04:15:21;;;;;;;31.00;22.92;;;11.60;99.90;;;;;;5028690;28;20544;-54
2022/05/07 04:17:48;;;;;;;28.25;22.65;;;11.60;99.90;;;;;;5028734;28;20209;-54
2022/05/07 04:20:14;;;;;;;27.60;23.17;;;11.70;99.90;;;;;;5028332;28;20448;-53
2022/05/07 04:22:40;;;;;;;29.52;23.83;;;11.60;99.90;;;;;;5028832;28;20041;-54
2022/05/07 04:25:08;;;;;;;28.92;23.80;;;11.60;99.90;;;;;;5026020;28;20045;-53
2022/05/07 04:27:33;;;;;;;32.75;23.13;;;11.60;99.90;;;;;;5029669;28;20057;-54
2022/05/07 04:29:59;;;;;;;28.38;22.65;;;12.00;99.90;;;;;;5029543;28;20041;-54
2022/05/07 04:32:26;;;;;;;30.60;24.35;;;11.60;99.90;;;;;;5027746;28;20053;-54
2022/05/07 04:34:52;;;;;;;30.23;23.52;;;12.20;99.90;;;;;;5029257;28;20053;-54
2022/05/07 04:37:18;;;;;;;27.20;23.40;;;11.80;99.90;;;;;;5027624;28;20052;-54
2022/05/07 04:39:43;;;;;;;31.58;25.40;;;11.60;99.90;;;;;;5029293;28;20056;-54
2022/05/07 04:42:09;;;;;;;27.75;24.13;;;11.70;99.90;;;;;;5027242;28;20115;-54
2022/05/07 04:44:35;;;;;;;28.20;23.83;;;11.70;99.90;;;;;;5029215;28;20475;-54
2022/05/07 04:47:01;;;;;;;32.72;24.17;;;11.70;99.90;;;;;;5027470;28;20060;-54
2022/05/07 04:49:27;;;;;;;26.02;23.23;;;11.80;99.90;;;;;;5028998;28;20049;-54
2022/05/07 04:51:52;;;;;;;34.63;25.60;;;11.80;99.90;;;;;;5029008;28;20409;-53
2022/05/07 04:54:22;;;;;;;35.47;24.92;;;11.80;99.90;;;;;;5027661;28;20053;-53
2022/05/07 04:56:48;;;;;;;28.48;24.52;;;11.90;99.90;;;;;;5029117;28;20080;-54
2022/05/07 04:59:15;;;;;;;34.72;26.13;;;12.00;99.90;;;;;;5028969;28;20409;-54
2022/05/07 05:01:40;;;;;;;30.30;26.73;;;12.00;99.90;;;;;;5027593;28;20060;-54
2022/05/07 05:04:06;;;;;;;29.60;24.58;;;12.10;99.90;;;;;;5027880;28;20053;-54
2022/05/07 05:06:32;;;;;;;36.80;27.02;;;12.20;99.90;;;;;;5011138;28;20049;-53
2022/05/07 05:08:58;;;;;;;29.00;24.73;;;12.30;99.90;;;;;;5029172;28;20053;-53
2022/05/07 05:11:25;;;;;;;32.17;24.27;;;12.50;99.90;;;;;;5029951;28;20045;-55
2022/05/07 05:13:51;;;;;;;29.15;24.83;;;12.90;99.90;;;;;;5032137;28;20116;-54
2022/05/07 05:16:16;;;;;;;30.17;24.70;;;12.60;99.90;;;;;;5032901;28;20191;-54
2022/05/07 05:18:42;;;;;;;34.20;26.67;;;12.70;99.90;;;;;;5031884;28;20042;-54
2022/05/07 05:21:08;;;;;;;30.98;24.52;;;12.80;99.90;;;;;;5033149;28;20052;-54
2022/05/07 05:23:34;;;;;;;29.38;24.73;;;12.80;99.90;;;;;;5032949;28;20037;-54
2022/05/07 05:25:59;;;;;;;32.85;25.63;;;12.90;99.90;;;;;;5026099;28;20401;-54
2022/05/07 05:28:25;;;;;;;30.42;24.77;;;12.90;99.90;;;;;;5027899;28;20180;-54
2022/05/07 05:30:51;;;;;;;31.35;24.85;;;13.00;99.90;;;;;;5011684;28;20145;-54
2022/05/07 05:33:21;;;;;;;27.48;23.70;;;12.90;99.90;;;;;;5012622;28;20053;-54
2022/05/07 05:35:47;;;;;;;33.13;25.77;;;12.90;99.90;;;;;;5011295;28;20049;-54
2022/05/07 05:38:15;;;;;;;32.25;25.70;;;12.90;99.90;;;;;;5012522;28;20038;-54
2022/05/07 05:40:41;;;;;;;34.95;28.23;;;12.80;99.90;;;;;;5013106;28;20416;-54
2022/05/07 05:43:08;;;;;;;32.42;26.75;;;12.90;99.90;;;;;;5011118;28;20062;-55
2022/05/07 05:45:34;;;;;;;29.48;25.00;;;12.90;99.90;;;;;;5012778;28;20115;-54
2022/05/07 05:48:01;;;;;;;35.70;27.60;;;12.90;99.90;;;;;;5011005;28;20056;-54
2022/05/07 05:50:31;;;;;;;35.92;28.02;;;13.00;99.90;;;;;;5010687;28;20497;-55
2022/05/07 05:52:59;;;;;;;37.45;27.80;;;13.10;99.90;;;;;;5011085;28;20763;-54
2022/05/07 05:55:25;;;;;;;35.15;28.00;;;13.40;99.90;;;;;;5027152;28;20497;-54
2022/05/07 05:57:51;;;;;;;36.50;28.52;;;13.40;99.90;;;;;;5011172;28;20058;-54
2022/05/07 06:00:18;;;;;;;31.33;25.13;;;13.50;99.90;;;;;;5012254;28;20074;-54
2022/05/07 06:02:44;;;;;;;32.88;25.60;;;13.70;99.90;;;;;;5010911;28;20124;-54
2022/05/07 06:05:11;;;;;;;31.02;24.25;;;13.90;99.90;;;;;;5010984;28;20060;-54
2022/05/07 06:07:37;;;;;;;25.92;23.02;;;14.20;99.90;;;;;;5011898;28;20077;-54
2022/05/07 06:10:04;;;;;;;27.33;23.15;;;14.40;99.90;;;;;;5010788;28;20195;-54
2022/05/07 06:12:30;;;;;;;28.75;22.38;;;14.60;99.90;;;;;;5010264;28;20454;-55
2022/05/07 06:14:56;;;;;;;30.48;20.67;;;14.90;99.90;;;;;;5010685;28;20125;-55
2022/05/07 06:17:22;;;;;;;23.90;20.42;;;15.30;99.90;;;;;;5010349;28;20049;-55
2022/05/07 06:19:48;;;;;;;22.63;19.38;;;15.90;99.90;;;;;;5010428;28;20050;-55
2022/05/07 06:22:14;;;;;;;22.23;19.02;;;16.00;99.90;;;;;;5011773;28;20045;-55
2022/05/07 06:27:31;;;;;;;20.15;17.33;;;16.50;99.90;;;;;;5027599;28;20053;-55
2022/05/07 06:29:57;;;;;;;21.33;16.25;;;16.90;99.90;;;;;;5020832;28;20052;-55
2022/05/07 06:32:24;;;;;;;18.50;15.32;;;16.60;99.90;;;;;;5019012;28;20095;-55
2022/05/07 06:34:50;;;;;;;21.70;17.23;;;16.60;99.90;;;;;;5022461;28;20056;-55
2022/05/07 06:37:15;;;;;;;22.85;18.00;;;16.40;99.90;;;;;;5019406;28;20473;-55
2022/05/07 06:39:41;;;;;;;21.13;17.05;;;16.50;99.90;;;;;;5020895;28;20408;-55
2022/05/07 06:42:08;;;;;;;21.00;17.45;;;16.30;99.90;;;;;;5028249;28;20138;-55
2022/05/07 06:44:33;;;;;;;22.58;20.13;;;16.30;99.90;;;;;;5020351;28;20053;-55
2022/05/07 06:46:59;;;;;;;25.88;18.58;;;16.30;99.90;;;;;;5015813;28;20060;-55
2022/05/07 06:49:25;;;;;;;21.23;18.42;;;16.30;99.90;;;;;;5026937;28;20130;-55
2022/05/07 06:51:51;;;;;;;21.58;19.33;;;16.50;99.90;;;;;;5025474;28;20409;-55
2022/05/07 06:54:17;;;;;;;24.77;18.35;;;16.90;99.90;;;;;;5021848;28;20050;-55
2022/05/07 06:56:43;;;;;;;22.30;17.80;;;16.60;99.90;;;;;;5021935;28;20044;-55
2022/05/07 06:59:10;;;;;;;20.17;18.00;;;16.80;99.90;;;;;;5021506;28;20046;-55
2022/05/07 07:01:36;;;;;;;22.42;18.63;;;17.00;99.90;;;;;;5019178;28;20044;-55
2022/05/07 07:04:03;;;;;;;20.83;18.27;;;17.20;99.90;;;;;;5019437;28;20045;-57
2022/05/07 07:06:28;;;;;;;21.40;18.67;;;17.40;99.90;;;;;;5019582;28;20041;-58
2022/05/07 07:08:54;;;;;;;19.38;16.85;;;17.50;99.90;;;;;;5016706;28;20438;-58
2022/05/07 07:11:24;;;;;;;26.10;17.75;;;17.60;99.90;;;;;;5008649;28;20060;-58
2022/05/07 07:13:50;;;;;;;21.75;18.13;;;18.10;99.90;;;;;;5008992;28;20050;-58
2022/05/07 07:16:17;;;;;;;24.48;16.45;;;18.50;99.90;;;;;;5011721;28;20041;-58
2022/05/07 07:18:43;;;;;;;21.52;16.15;;;19.20;99.90;;;;;;5020318;28;20057;-58
2022/05/07 07:21:12;;;;;;;20.02;16.33;;;19.60;99.10;;;;;;5019663;28;20512;-58
2022/05/07 07:23:38;;;;;;;22.05;15.65;;;19.70;97.10;;;;;;5019171;28;20145;-59
2022/05/07 07:26:04;;;;;;;19.00;15.75;;;19.80;95.70;;;;;;5014222;28;20620;-59
2022/05/07 07:28:30;;;;;;;16.52;14.85;;;19.80;94.90;;;;;;5010559;28;20045;-58
2022/05/07 07:30:55;;;;;;;19.23;15.63;;;19.80;94.10;;;;;;5014931;28;20049;-59
2022/05/07 07:33:21;;;;;;;18.13;15.00;;;20.10;93.10;;;;;;5018324;28;20042;-59
2022/05/07 07:35:47;;;;;;;19.45;14.65;;;20.70;91.90;;;;;;5018365;28;20046;-59
2022/05/07 07:38:13;;;;;;;16.75;14.95;;;21.40;90.50;;;;;;5034128;28;20524;-59
2022/05/07 07:40:39;;;;;;;16.60;14.60;;;21.90;88.20;;;;;;5012801;28;20042;-59
2022/05/07 07:43:05;;;;;;;16.77;14.05;;;22.70;85.50;;;;;;5010045;28;20108;-59
2022/05/07 07:48:15;;;;;;;19.20;13.77;;;24.30;79.50;;;;;;5010407;28;20048;-60
2022/05/07 07:50:41;;;;;;;18.63;13.77;;;24.80;76.30;;;;;;5009704;28;20041;-59
2022/05/07 07:53:11;;;;;;;15.90;12.95;;;25.20;74.00;;;;;;5008540;28;20104;-60
2022/05/07 07:55:38;;;;;;;15.75;13.32;;;25.50;70.90;;;;;;5008516;28;20050;-59
2022/05/07 07:58:06;;;;;;;15.50;11.90;;;25.60;70.00;;;;;;5008969;28;20149;-59
2022/05/07 08:00:34;;;;;;;13.73;12.32;;;25.30;69.30;;;;;;5009613;28;20505;-60
2022/05/07 08:03:14;;;;;;;16.52;13.55;;;25.30;68.60;;;;;;5008641;28;20046;-60
2022/05/07 08:05:41;;;;;;;18.38;13.32;;;25.30;67.60;;;;;;5009776;28;20046;-60
2022/05/07 08:13:40;;;;;;;14.48;12.57;;;25.30;66.60;;;;;;5009821;28;20050;-60
2022/05/07 08:16:09;;;;;;;16.08;13.30;;;24.90;66.60;;;;;;5008807;28;20121;-60
2022/05/07 08:18:36;;;;;;;14.52;13.05;;;24.50;66.30;;;;;;5008247;28;20053;-60
2022/05/07 08:21:03;;;;;;;15.73;11.45;;;24.20;66.20;;;;;;5009575;28;20157;-60
2022/05/07 08:23:28;;;;;;;13.93;11.85;;;23.90;66.00;;;;;;5008173;28;20038;-60
2022/05/07 08:25:55;;;;;;;14.07;11.05;;;23.60;66.30;;;;;;5019186;28;20283;-60
2022/05/07 08:28:24;;;;;;;14.43;9.60;;;23.30;66.50;;;;;;5018889;28;20048;-60
2022/05/07 08:30:50;;;;;;;12.57;8.85;;;23.00;66.20;;;;;;5018394;28;20556;-60
2022/05/07 08:33:19;;;;;;;13.68;9.32;;;22.60;65.90;;;;;;5016978;28;20144;-60
2022/05/07 08:35:45;;;;;;;12.80;10.23;;;22.40;66.50;;;;;;5017766;28;20801;-60
2022/05/07 08:38:10;;;;;;;13.52;9.65;;;22.40;67.60;;;;;;5026511;28;20046;-60
2022/05/07 08:40:36;;;;;;;14.38;10.52;;;22.50;68.30;;;;;;5029306;28;20045;-60
2022/05/07 08:43:05;;;;;;;11.77;8.00;;;22.50;69.00;;;;;;5029170;28;20061;-60
2022/05/07 08:45:31;;;;;;;11.43;8.27;;;22.30;68.90;;;;;;5026906;28;20045;-60
2022/05/07 08:47:56;;;;;;;16.30;9.55;;;22.00;68.70;;;;;;5028029;28;20045;-60
2022/05/07 08:50:23;;;;;;;15.90;9.65;;;21.80;68.20;;;;;;5027942;28;20072;-60
2022/05/07 08:52:52;;;;;;;11.15;8.63;;;21.70;67.70;;;;;;5027480;28;20046;-60
2022/05/07 08:55:20;;;;;;;10.73;8.65;;;21.90;67.30;;;;;;5019513;28;20068;-60
2022/05/07 08:57:53;;;;;;;11.13;8.40;;;22.10;67.70;;;;;;5007760;28;20061;-59
2022/05/07 09:00:24;;;;;;;11.40;7.90;;;22.50;67.90;;;;;;5009300;28;20052;-60
2022/05/07 09:02:52;;;;;;;13.80;8.77;;;22.80;67.50;;;;;;5007231;28;20042;-60
2022/05/07 09:05:20;;;;;;;13.27;9.18;;;23.00;67.20;;;;;;5008207;28;20046;-59
2022/05/07 09:07:59;;;;;;;12.90;8.88;;;23.30;66.30;;;;;;5009130;28;20042;-59
2022/05/07 09:10:29;;;;;;;12.48;9.55;;;23.40;64.40;;;;;;5008019;28;20049;-59
2022/05/07 09:13:16;;;;;;;12.20;8.95;;;23.50;64.30;;;;;;5009083;28;20046;-59
2022/05/07 09:16:11;;;;;;;14.02;8.52;;;23.70;64.90;;;;;;5009112;28;20034;-59
2022/05/07 09:18:36;;;;;;;12.63;9.68;;;23.90;63.20;;;;;;5008427;28;20085;-59
2022/05/07 09:24:02;;;;;;;14.02;11.65;;;24.20;64.80;;;;;;5008290;28;20068;-59
2022/05/07 09:26:30;;;;;;;15.60;12.02;;;24.20;65.00;;;;;;5025683;28;20160;-59
2022/05/07 09:28:56;;;;;;;20.20;12.65;;;24.40;65.40;;;;;;5027614;28;20046;-59
2022/05/07 09:31:23;;;;;;;14.93;12.23;;;24.50;65.70;;;;;;5028998;28;20509;-59
2022/05/07 09:33:49;;;;;;;13.93;11.43;;;24.80;64.60;;;;;;5028515;28;20050;-59
2022/05/07 09:36:15;;;;;;;14.80;11.88;;;24.80;63.30;;;;;;5027478;28;20111;-59
2022/05/07 09:38:40;;;;;;;13.15;11.13;;;24.90;63.40;;;;;;5028575;28;20038;-60
2022/05/07 09:41:06;;;;;;;14.02;10.85;;;24.90;63.00;;;;;;5028757;28;20128;-60
2022/05/07 09:43:33;;;;;;;15.65;10.90;;;25.00;62.50;;;;;;5027273;28;20072;-60
2022/05/07 09:45:59;;;;;;;12.82;11.35;;;25.00;62.10;;;;;;5027419;28;20057;-60
2022/05/07 09:48:24;;;;;;;14.48;11.48;;;25.00;60.90;;;;;;5028854;28;20045;-60
2022/05/07 09:50:51;;;;;;;15.85;12.35;;;25.00;60.70;;;;;;5028527;28;20045;-60
2022/05/07 09:58:49;;;;;;;13.35;10.93;;;24.60;60.50;;;;;;5032381;28;20056;-57
2022/05/07 10:01:21;;;;;;;13.90;11.07;;;24.70;61.70;;;;;;5030923;28;20091;-57
2022/05/07 10:03:56;;;;;;;12.43;10.80;;;24.70;60.40;;;;;;5011468;28;20050;-56
2022/05/07 10:06:49;;;;;;;14.40;10.45;;;24.70;60.50;;;;;;5017777;28;20120;-56
2022/05/07 10:09:33;;;;;;;13.90;10.13;;;24.70;60.90;;;;;;5031843;28;20127;-56
2022/05/07 10:12:00;;;;;;;14.43;10.93;;;24.70;61.00;;;;;;5031022;28;20049;-56
2022/05/07 10:14:30;;;;;;;13.27;9.93;;;24.60;61.40;;;;;;5031236;28;20045;-56
2022/05/07 10:17:01;;;;;;;18.45;10.98;;;24.70;61.80;;;;;;5030932;28;20049;-56
2022/05/07 10:20:04;;;;;;;14.73;9.52;;;24.60;61.90;;;;;;5032310;28;20049;-57
2022/05/07 10:22:30;;;;;;;10.27;9.18;;;24.80;59.90;;;;;;5031055;28;20084;-56
2022/05/07 10:25:10;;;;;;;13.32;10.48;;;25.10;60.30;;;;;;5028771;28;20085;-56
2022/05/07 10:27:44;;;;;;;14.63;10.40;;;25.30;60.80;;;;;;5026678;28;20112;-58
2022/05/07 10:30:16;;;;;;;14.48;10.27;;;25.50;59.80;;;;;;5012717;28;20448;-59
2022/05/07 10:32:57;;;;;;;14.48;11.13;;;25.70;59.10;;;;;;5018462;28;20464;-55
2022/05/07 10:35:52;;;;;;;12.80;10.75;;;25.90;58.90;;;;;;5019823;28;20033;-53
2022/05/07 10:38:27;;;;;;;15.75;11.55;;;25.90;57.80;;;;;;5015786;28;20045;-46
2022/05/07 10:40:58;;;;;;;13.95;11.52;;;25.90;58.10;;;;;;5020937;28;20029;-44
2022/05/07 10:43:24;;;;;;;15.88;11.70;;;25.90;56.80;;;;;;5019139;28;20045;-58
2022/05/07 10:45:54;;;;;;;15.77;12.45;;;25.70;58.10;;;;;;5011825;28;20482;-45
2022/05/07 10:48:20;;;;;;;15.02;12.45;;;25.50;58.20;;;;;;5009300;28;20026;-54
2022/05/07 10:50:54;;;;;;;14.20;12.73;;;25.50;59.10;;;;;;5016984;28;20046;-57
2022/05/07 10:53:21;;;;;;;16.33;13.77;;;25.30;60.00;;;;;;5018167;28;20473;-55
2022/05/07 10:55:50;;;;;;;15.65;14.02;;;25.10;60.20;;;;;;5016096;28;20054;-55
2022/05/07 10:58:29;;;;;;;18.23;14.35;;;25.10;60.80;;;;;;5018234;28;20107;-49
2022/05/07 11:00:59;;;;;;;17.60;15.55;;;25.00;60.60;;;;;;5018967;28;20037;-48
2022/05/07 11:03:26;;;;;;;19.40;14.13;;;25.00;60.40;;;;;;5020486;28;20041;-53
2022/05/07 11:05:59;;;;;;;24.88;14.05;;;25.00;61.60;;;;;;5017518;28;20030;-49
2022/05/07 11:08:26;;;;;;;21.52;14.88;;;24.90;61.80;;;;;;5018981;28;20045;-55
2022/05/07 11:11:07;;;;;;;18.92;15.05;;;24.70;61.40;;;;;;5018968;28;20037;-57
2022/05/07 11:13:47;;;;;;;17.27;14.13;;;24.60;60.60;;;;;;5015720;28;20037;-53
2022/05/07 11:16:13;;;;;;;17.80;13.93;;;24.70;61.30;;;;;;5017811;28;20068;-53
2022/05/07 11:18:41;;;;;;;17.90;13.32;;;24.90;61.80;;;;;;5017949;28;20061;-60
2022/05/07 11:21:08;;;;;;;18.92;15.30;;;25.00;61.70;;;;;;5018960;28;20042;-62
2022/05/07 11:23:39;;;;;;;19.85;14.27;;;25.20;61.50;;;;;;5014943;28;20119;-54
2022/05/07 11:26:13;;;;;;;17.98;15.70;;;25.40;60.90;;;;;;5017472;28;20056;-46
2022/05/07 11:28:43;;;;;;;18.38;15.52;;;25.60;60.60;;;;;;5015820;28;20045;-59
2022/05/07 11:31:34;;;;;;;21.77;15.90;;;25.80;61.00;;;;;;5015405;28;20060;-60
2022/05/07 11:34:11;;;;;;;26.55;15.93;;;26.20;59.80;;;;;;5014563;28;20053;-57
2022/05/07 11:36:38;;;;;;;19.02;15.90;;;26.40;59.00;;;;;;5018738;28;20040;-50
2022/05/07 11:39:08;;;;;;;22.45;16.50;;;26.60;58.70;;;;;;5014590;28;20691;-47
2022/05/07 11:41:36;;;;;;;19.70;16.08;;;26.90;59.00;;;;;;5016357;28;20045;-54
2022/05/07 11:46:57;;;;;;;21.65;17.88;;;26.80;58.40;;;;;;5017788;28;20044;-53
2022/05/07 11:49:34;;;;;;;22.10;19.60;;;26.50;58.30;;;;;;5016329;28;20034;-55
2022/05/07 11:52:11;;;;;;;22.98;17.90;;;26.20;58.20;;;;;;5018935;28;20416;-48
2022/05/07 11:54:47;;;;;;;25.15;18.10;;;25.90;58.60;;;;;;5014436;28;20069;-46
2022/05/07 11:57:13;;;;;;;21.75;18.08;;;25.70;59.10;;;;;;5016169;28;20488;-49
2022/05/07 11:59:45;;;;;;;24.30;19.13;;;25.60;59.20;;;;;;5014097;28;20041;-50
2022/05/07 12:02:11;;;;;;;22.05;17.52;;;25.60;60.00;;;;;;5018185;28;20498;-56
2022/05/07 12:04:37;;;;;;;22.38;17.08;;;25.50;59.80;;;;;;5016210;28;20495;-55
2022/05/07 12:07:03;;;;;;;20.38;17.05;;;25.30;60.00;;;;;;5015223;28;20046;-57
2022/05/07 12:09:29;;;;;;;25.38;18.38;;;25.10;60.10;;;;;;5017371;28;20059;-57
2022/05/07 12:11:55;;;;;;;21.80;15.73;;;24.90;59.70;;;;;;5004199;28;20075;-56
2022/05/07 12:14:21;;;;;;;19.48;17.23;;;24.70;60.20;;;;;;5018825;28;20746;-56
2022/05/07 12:19:34;;;;;;;25.42;17.45;;;24.80;60.80;;;;;;5017706;28;20116;-57
2022/05/07 12:30:14;;;;;;;21.98;17.77;;;25.30;61.40;;;;;;5014948;28;20034;-57
2022/05/07 12:32:43;;;;;;;21.48;17.42;;;25.30;60.40;;;;;;5016815;28;20058;-56
2022/05/07 12:35:09;;;;;;;21.55;16.88;;;25.40;60.50;;;;;;5015571;28;20822;-57
2022/05/07 12:37:37;;;;;;;25.98;18.08;;;25.60;60.10;;;;;;5017421;28;20040;-57
2022/05/07 12:40:04;;;;;;;21.40;18.63;;;25.70;60.90;;;;;;5031063;28;20045;-56
2022/05/07 12:42:30;;;;;;;23.60;18.65;;;25.60;60.10;;;;;;5004651;28;20386;-56
2022/05/07 12:44:55;;;;;;;27.67;20.90;;;25.50;60.20;;;;;;5016446;28;20121;-56
2022/05/07 12:47:21;;;;;;;26.02;20.75;;;25.20;60.40;;;;;;5015228;28;20045;-56
2022/05/07 12:49:47;;;;;;;22.88;18.77;;;25.00;60.60;;;;;;5017671;28;20073;-57
2022/05/07 12:52:13;;;;;;;22.65;17.33;;;24.90;61.20;;;;;;5014962;28;20072;-57
2022/05/07 12:54:39;;;;;;;22.08;18.70;;;24.80;62.30;;;;;;5015374;28;20111;-57
2022/05/07 12:57:05;;;;;;;23.45;18.60;;;24.70;62.50;;;;;;5016024;28;20042;-57
2022/05/07 12:59:31;;;;;;;23.50;17.20;;;24.50;62.10;;;;;;5017189;28;20392;-57
2022/05/07 13:01:57;;;;;;;20.27;16.27;;;24.30;62.40;;;;;;5005181;28;20045;-57
2022/05/07 13:04:24;;;;;;;19.33;15.77;;;24.20;62.50;;;;;;5015897;28;20049;-57
2022/05/07 13:06:53;;;;;;;23.48;16.02;;;24.10;63.00;;;;;;5016662;28;20041;-57
2022/05/07 13:09:19;;;;;;;20.67;14.20;;;24.00;63.10;;;;;;5017299;28;21171;-57
2022/05/07 13:11:45;;;;;;;16.10;11.82;;;24.00;63.30;;;;;;5016534;28;20829;-57